Latest Coastal Weather Observations for Swanbourne

IDW60701

Issued at 10:22 pm WST Sunday 2 August 2015 (issued every 10 minutes, with the page automatically refreshed every 10 minutes)

About coastal observations | Map of coastal stations | Coastal observations for WA | Marine services | Other Formats
Station Details ID: 009215 Name: SWANBOURNE Lat: -31.96 Lon: 115.76 Height: 40.96 m
Data from the previous 72 hours. | See also: Recent months at Swanbourne
Date/Time
WST
Temp

°C
Wind Pressure Rain
since 9am
mm
Weather Cloud Vis
km
Sea
Height
m
Swell
Dir
 
Speed
knots
Gust
knots
hPa Trend Height
m
Period
s
Dir
02/10:00pm 10.0 E 5 7 - - 0.0 - - - - - - -
02/09:30pm 9.5 E 4 5 - - 0.0 - - - - - - -
02/09:00pm 10.4 E 4 6 - - 0.0 - - - - - - -
02/08:30pm 10.2 E 5 6 - - 0.0 - - - - - - -
02/08:00pm 10.6 E 5 6 - - 0.0 - - - - - - -
02/07:30pm 10.5 E 4 6 - - 0.0 - - - - - - -
02/07:00pm 11.1 E 5 6 - - 0.0 - - - - - - -
02/06:30pm 11.6 E 5 6 - - 0.0 - - - - - - -
02/06:00pm 12.6 E 5 6 - - 0.0 - - - - - - -
02/05:30pm 14.1 E 4 7 - - 0.0 - - - - - - -
02/05:00pm 15.4 E 5 8 - - 0.0 - - - - - - -
02/04:30pm 16.2 E 5 8 - - 0.0 - - - - - - -
02/04:00pm 16.7 E 5 11 - - 0.0 - - - - - - -
02/03:30pm 16.9 E 7 11 - - 0.0 - - - - - - -
02/03:00pm 17.1 ESE 6 9 - - 0.0 - - - - - - -
02/02:30pm 17.2 ESE 6 12 - - 0.0 - - - - - - -
02/02:00pm 17.1 SE 6 10 - - 0.0 - - - - - - -
02/01:30pm 16.8 ESE 6 10 - - 0.0 - - - - - - -
02/01:00pm 16.6 SE 7 11 - - 0.0 - - - - - - -
02/12:30pm 16.4 ESE 5 9 - - 0.0 - - - - - - -
02/12:00pm 15.3 ESE 6 10 - - 0.0 - - - - - - -
02/11:30am 14.5 ESE 7 10 - - 0.0 - - - - - - -
02/11:00am 13.8 E 7 11 - - 0.0 - - - - - - -
02/10:30am 13.4 E 5 10 - - 0.0 - - - - - - -
02/10:00am 12.7 ESE 6 11 - - 0.0 - - - - - - -
02/09:30am 11.8 ESE 6 9 - - 0.0 - - - - - - -
02/09:00am 11.2 ESE 4 6 - - 0.0 - - - - - - -
02/08:30am 10.0 ESE 3 5 - - 0.0 - - - - - - -
02/08:00am 9.0 ESE 4 5 - - 0.0 - - - - - - -
02/07:30am 8.4 ESE 3 5 - - 0.0 - - - - - - -
02/07:00am 8.2 ESE 3 4 - - 0.0 - - - - - - -
02/06:30am 7.9 ESE 4 6 - - 0.0 - - - - - - -
02/06:00am 7.3 ESE 4 5 - - 0.0 - - - - - - -
02/05:30am 7.0 ESE 4 7 - - 0.0 - - - - - - -
02/05:00am 6.3 ESE 3 4 - - 0.0 - - - - - - -
02/04:30am 6.8 ESE 3 4 - - 0.0 - - - - - - -
02/04:00am 7.1 ESE 3 4 - - 0.0 - - - - - - -
02/03:30am 7.9 ESE 4 5 - - 0.0 - - - - - - -
02/03:00am 8.4 SE 4 5 - - 0.0 - - - - - - -
02/02:30am 8.4 ESE 4 5 - - 0.0 - - - - - - -
02/02:00am 7.8 ESE 3 4 - - 0.0 - - - - - - -
02/01:30am 7.8 SE 4 5 - - 0.0 - - - - - - -
02/01:00am 8.0 SE 4 4 - - 0.0 - - - - - - -
02/12:30am 8.1 ESE 3 4 - - 0.0 - - - - - - -
02/12:00am 8.5 ESE 3 4 - - 0.0 - - - - - - -
 
Date/Time
WST
Temp

°C
Wind Pressure Rain
since 9am
mm
Weather Cloud Vis
km
Sea
Height
m
Swell
Dir
 
Speed
knots
Gust
knots
hPa Trend Height
m
Period
s
Dir
01/11:30pm 8.7 ESE 4 5 - - 0.0 - - - - - - -
01/11:00pm 9.1 SE 3 4 - - 0.0 - - - - - - -
01/10:30pm 9.4 ESE 3 4 - - 0.0 - - - - - - -
01/10:00pm 9.7 SE 4 4 - - 0.0 - - - - - - -
01/09:30pm 10.1 ESE 3 5 - - 0.0 - - - - - - -
01/09:00pm 10.8 ESE 4 6 - - 0.0 - - - - - - -
01/08:30pm 10.8 SE 4 7 - - 0.0 - - - - - - -
01/08:00pm 11.4 SE 4 7 - - 0.0 - - - - - - -
01/07:30pm 12.2 ESE 6 9 - - 0.0 - - - - - - -
01/07:00pm 12.9 SE 7 11 - - 0.0 - - - - - - -
01/06:30pm 13.4 SE 7 12 - - 0.0 - - - - - - -
01/06:00pm 14.0 SE 8 12 - - 0.0 - - - - - - -
01/05:30pm 14.3 SE 7 13 - - 0.0 - - - - - - -
01/05:00pm 14.8 SE 7 13 - - 0.0 - - - - - - -
01/04:30pm 15.5 ESE 8 15 - - 0.0 - - - - - - -
01/04:00pm 15.9 ESE 9 15 - - 0.0 - - - - - - -
01/03:30pm 16.4 SE 8 12 - - 0.0 - - - - - - -
01/03:00pm 17.3 SE 9 13 - - 0.0 - - - - - - -
01/02:30pm 17.6 SSE 9 15 - - 0.0 - - - - - - -
01/02:00pm 17.8 SE 9 14 - - 0.0 - - - - - - -
01/01:30pm 18.4 SE 10 16 - - 0.0 - - - - - - -
01/01:00pm 18.1 SE 8 13 - - 0.0 - - - - - - -
01/12:30pm 17.3 SE 8 14 - - 0.0 - - - - - - -
01/12:00pm 17.7 ESE 8 15 - - 0.0 - - - - - - -
01/11:30am 17.1 ESE 10 19 - - 0.0 - - - - - - -
01/11:00am 15.9 SE 12 18 - - 0.0 - - - - - - -
01/10:30am 15.3 SE 11 20 - - 0.0 - - - - - - -
01/10:00am 15.0 ESE 9 15 - - 0.0 - - - - - - -
01/09:30am 14.3 SE 10 18 - - 0.0 - - - - - - -
01/09:00am 13.0 SE 11 20 - - 0.4 - - - - - - -
01/08:30am 13.0 SE 7 13 - - 0.4 - - - - - - -
01/08:00am 12.3 SSE 7 11 - - 0.4 - - - - - - -
01/07:30am 10.9 SE 6 9 - - 0.4 - - - - - - -
01/07:00am 10.4 SE 5 9 - - 0.4 - - - - - - -
01/06:30am 10.8 SSE 6 9 - - 0.4 - - - - - - -
01/06:00am 11.4 SE 8 14 - - 0.4 - - - - - - -
01/05:30am 11.8 SE 8 16 - - 0.4 - - - - - - -
01/05:00am 11.9 SE 7 15 - - 0.4 - - - - - - -
01/04:30am 12.0 SE 10 16 - - 0.4 - - - - - - -
01/04:00am 11.9 ESE 10 20 - - 0.4 - - - - - - -
01/03:30am 12.0 ESE 11 20 - - 0.4 - - - - - - -
01/03:00am 12.2 ESE 12 18 - - 0.4 - - - - - - -
01/02:30am 12.5 ESE 15 23 - - 0.4 - - - - - - -
01/02:00am 12.5 ESE 12 23 - - 0.4 - - - - - - -
01/01:30am 12.8 ESE 13 21 - - 0.4 - - - - - - -
01/01:00am 13.0 SE 12 23 - - 0.4 - - - - - - -
01/12:50am 13.1 SE 15 25 - - 0.4 - - - - - - -
01/12:30am 13.1 SE 11 19 - - 0.4 - - - - - - -
01/12:00am 13.3 ESE 11 20 - - 0.4 - - - - - - -
 
Date/Time
WST
Temp

°C
Wind Pressure Rain
since 9am
mm
Weather Cloud Vis
km
Sea
Height
m
Swell
Dir
 
Speed
knots
Gust
knots
hPa Trend Height
m
Period
s
Dir
31/11:30pm 13.6 ESE 12 20 - - 0.4 - - - - - - -
31/11:00pm 13.9 ESE 14 20 - - 0.4 - - - - - - -
31/10:30pm 14.0 ESE 10 21 - - 0.4 - - - - - - -
31/10:00pm 14.0 SE 9 14 - - 0.4 - - - - - - -
31/09:30pm 14.4 ESE 7 10 - - 0.4 - - - - - - -
31/09:00pm 15.1 SE 6 9 - - 0.4 - - - - - - -
31/08:30pm 15.8 S 4 6 - - 0.4 - - - - - - -
31/08:00pm 15.7 S 4 5 - - 0.4 - - - - - - -
31/07:30pm 16.3 S 6 9 - - 0.4 - - - - - - -
31/07:00pm 16.6 SSW 7 10 - - 0.4 - - - - - - -
31/06:30pm 16.3 S 5 7 - - 0.4 - - - - - - -
31/06:00pm 16.1 S 4 6 - - 0.4 - - - - - - -
31/05:30pm 16.9 SSW 7 9 - - 0.4 - - - - - - -
31/05:00pm 17.6 SW 7 11 - - 0.4 - - - - - - -
31/04:30pm 19.0 SW 7 12 - - 0.4 - - - - - - -
31/04:00pm 19.5 SW 8 11 - - 0.4 - - - - - - -
31/03:30pm 20.0 SW 8 11 - - 0.4 - - - - - - -
31/03:00pm 19.7 SW 6 8 - - 0.4 - - - - - - -
31/02:30pm 19.8 SW 8 11 - - 0.4 - - - - - - -
31/02:00pm 20.7 SSW 6 9 - - 0.4 - - - - - - -
31/01:30pm 20.2 SSW 9 13 - - 0.4 - - - - - - -
31/01:00pm 20.5 SSW 7 10 - - 0.4 - - - - - - -
31/12:30pm 18.9 SSW 7 10 - - 0.4 - - - - - - -
31/12:00pm 19.3 SSW 8 11 - - 0.4 - - - - - - -
31/11:30am 19.5 SSW 5 8 - - 0.4 - - - - - - -
31/11:00am 19.1 WSW 2 4 - - 0.4 - - - - - - -
31/10:30am 18.5 NW 2 3 - - 0.4 - - - - - - -
31/10:00am 18.4 N 3 5 - - 0.4 - - - - - - -
31/09:30am 17.8 N 2 3 - - 0.2 - - - - - - -
31/09:00am 17.2 N 5 8 - - - Recent precip. - - - - - -
31/08:30am 17.0 N 6 10 - - - - - - - - - -
31/08:00am 16.9 N 7 11 - - - - - - - - - -
31/07:30am 16.9 N 7 12 - - - - - - - - - -
31/07:00am 16.9 N 10 16 - - - - - - - - - -
31/06:30am 16.8 N 6 9 - - - - - - - - - -
31/06:00am 16.7 N 7 11 - - - Recent precip. - - - - - -
31/05:30am 16.6 N 11 16 - - - - - - - - - -
31/05:00am 16.5 NNE 10 19 - - - - - - - - - -
31/04:30am 16.5 NNE 12 21 - - - - - - - - - -
31/04:00am 16.4 NNE 9 17 - - - - - - - - - -
31/03:30am 16.4 NE 9 15 - - - - - - - - - -
31/03:00am 16.6 NE 10 17 - - 2.0 - - - - - - -
31/02:30am 16.3 NE 9 17 - - - - - - - - - -
31/02:00am 16.3 NE 9 16 - - - - - - - - - -
31/01:30am 16.2 NE 8 13 - - - - - - - - - -
31/01:00am 16.2 NNE 10 16 - - - - - - - - - -
31/12:30am 16.1 NE 11 17 - - - - - - - - - -
31/12:00am 16.0 NE 10 19 - - - Rain - - - - - -
 
Date/Time
WST
Temp

°C
Wind Pressure Rain
since 9am
mm
Weather Cloud Vis
km
Sea
Height
m
Swell
Dir
 
Speed
knots
Gust
knots
hPa Trend Height
m
Period
s
Dir
30/11:30pm 15.9 NNE 10 17 - - - - - - - - - -
30/11:00pm 15.9 NE 10 17 - - - - - - - - - -
30/10:30pm 15.9 NE 9 15 - - - - - - - - - -

Other Formats:

Comma delimited format used in spreadsheet applications
http://www.bom.gov.au/fwo/IDW60701/IDW60701.94614.axf

JavaScript Object Notation format (JSON) in row-major order
http://www.bom.gov.au/fwo/IDW60701/IDW60701.94614.json